sensor_id;sensor_type;location;lat;lon;timestamp;P1;durP1;ratioP1;P2;durP2;ratioP2
5841;SDS011;2947;52.276;9.946;2023-11-21T00:00:30;24.73;;;13.00;;
5841;SDS011;2947;52.276;9.946;2023-11-21T00:02:56;27.60;;;11.63;;
5841;SDS011;2947;52.276;9.946;2023-11-21T00:05:22;24.17;;;11.87;;
5841;SDS011;2947;52.276;9.946;2023-11-21T00:07:48;26.70;;;12.00;;
5841;SDS011;2947;52.276;9.946;2023-11-21T00:10:14;30.50;;;11.80;;
5841;SDS011;2947;52.276;9.946;2023-11-21T00:12:40;27.30;;;12.90;;
5841;SDS011;2947;52.276;9.946;2023-11-21T00:15:07;26.23;;;13.10;;
5841;SDS011;2947;52.276;9.946;2023-11-21T00:17:37;29.53;;;12.37;;
5841;SDS011;2947;52.276;9.946;2023-11-21T00:20:03;31.30;;;13.70;;
5841;SDS011;2947;52.276;9.946;2023-11-21T00:22:32;23.33;;;11.53;;
5841;SDS011;2947;52.276;9.946;2023-11-21T00:24:59;27.20;;;12.30;;
5841;SDS011;2947;52.276;9.946;2023-11-21T00:27:26;23.53;;;11.27;;
5841;SDS011;2947;52.276;9.946;2023-11-21T00:29:52;32.77;;;14.10;;
5841;SDS011;2947;52.276;9.946;2023-11-21T00:32:18;32.87;;;12.80;;
5841;SDS011;2947;52.276;9.946;2023-11-21T00:34:44;29.67;;;13.40;;
5841;SDS011;2947;52.276;9.946;2023-11-21T00:37:09;32.63;;;14.80;;
5841;SDS011;2947;52.276;9.946;2023-11-21T00:39:35;34.70;;;12.73;;
5841;SDS011;2947;52.276;9.946;2023-11-21T00:42:01;28.10;;;12.63;;
5841;SDS011;2947;52.276;9.946;2023-11-21T00:44:27;36.03;;;14.03;;
5841;SDS011;2947;52.276;9.946;2023-11-21T00:46:52;32.43;;;14.03;;
5841;SDS011;2947;52.276;9.946;2023-11-21T00:49:19;34.80;;;13.87;;
5841;SDS011;2947;52.276;9.946;2023-11-21T00:51:45;35.90;;;13.27;;
5841;SDS011;2947;52.276;9.946;2023-11-21T00:54:11;30.77;;;12.33;;
5841;SDS011;2947;52.276;9.946;2023-11-21T00:56:37;26.10;;;12.33;;
5841;SDS011;2947;52.276;9.946;2023-11-21T00:59:03;30.07;;;13.70;;
5841;SDS011;2947;52.276;9.946;2023-11-21T01:01:30;39.43;;;14.10;;
5841;SDS011;2947;52.276;9.946;2023-11-21T01:03:55;31.63;;;13.23;;
5841;SDS011;2947;52.276;9.946;2023-11-21T01:06:21;34.80;;;13.50;;
5841;SDS011;2947;52.276;9.946;2023-11-21T01:08:47;29.73;;;12.30;;
5841;SDS011;2947;52.276;9.946;2023-11-21T01:11:12;33.00;;;14.17;;
5841;SDS011;2947;52.276;9.946;2023-11-21T01:13:39;34.53;;;13.70;;
5841;SDS011;2947;52.276;9.946;2023-11-21T01:16:06;40.23;;;14.70;;
5841;SDS011;2947;52.276;9.946;2023-11-21T01:18:32;26.73;;;13.27;;
5841;SDS011;2947;52.276;9.946;2023-11-21T01:20:58;34.10;;;14.07;;
5841;SDS011;2947;52.276;9.946;2023-11-21T01:23:25;32.27;;;13.43;;
5841;SDS011;2947;52.276;9.946;2023-11-21T01:25:52;39.67;;;14.10;;
5841;SDS011;2947;52.276;9.946;2023-11-21T01:28:20;30.77;;;13.20;;
5841;SDS011;2947;52.276;9.946;2023-11-21T01:30:45;28.10;;;16.23;;
5841;SDS011;2947;52.276;9.946;2023-11-21T01:33:11;30.77;;;12.63;;
5841;SDS011;2947;52.276;9.946;2023-11-21T01:35:37;28.10;;;13.60;;
5841;SDS011;2947;52.276;9.946;2023-11-21T01:38:02;35.63;;;14.43;;
5841;SDS011;2947;52.276;9.946;2023-11-21T01:40:29;34.93;;;13.23;;
5841;SDS011;2947;52.276;9.946;2023-11-21T01:42:55;34.20;;;15.20;;
5841;SDS011;2947;52.276;9.946;2023-11-21T01:45:22;35.30;;;14.03;;
5841;SDS011;2947;52.276;9.946;2023-11-21T01:47:50;26.57;;;12.40;;
5841;SDS011;2947;52.276;9.946;2023-11-21T01:50:16;37.20;;;13.50;;
5841;SDS011;2947;52.276;9.946;2023-11-21T01:52:46;40.33;;;15.40;;
5841;SDS011;2947;52.276;9.946;2023-11-21T01:55:13;35.00;;;13.90;;
5841;SDS011;2947;52.276;9.946;2023-11-21T01:57:45;32.30;;;13.37;;
5841;SDS011;2947;52.276;9.946;2023-11-21T02:00:11;38.17;;;13.53;;
5841;SDS011;2947;52.276;9.946;2023-11-21T02:02:45;33.90;;;13.87;;
5841;SDS011;2947;52.276;9.946;2023-11-21T02:05:11;33.03;;;13.47;;
5841;SDS011;2947;52.276;9.946;2023-11-21T02:07:39;41.60;;;15.73;;
5841;SDS011;2947;52.276;9.946;2023-11-21T02:10:06;30.67;;;13.70;;
5841;SDS011;2947;52.276;9.946;2023-11-21T02:12:33;32.20;;;12.93;;
5841;SDS011;2947;52.276;9.946;2023-11-21T02:15:00;34.90;;;13.93;;
5841;SDS011;2947;52.276;9.946;2023-11-21T02:17:30;27.50;;;13.10;;
5841;SDS011;2947;52.276;9.946;2023-11-21T02:19:57;39.73;;;15.57;;
5841;SDS011;2947;52.276;9.946;2023-11-21T02:22:24;31.70;;;13.90;;
5841;SDS011;2947;52.276;9.946;2023-11-21T02:24:56;36.40;;;14.23;;
5841;SDS011;2947;52.276;9.946;2023-11-21T02:27:23;34.70;;;16.10;;
5841;SDS011;2947;52.276;9.946;2023-11-21T02:29:49;37.83;;;14.50;;
5841;SDS011;2947;52.276;9.946;2023-11-21T02:32:15;29.10;;;12.87;;
5841;SDS011;2947;52.276;9.946;2023-11-21T02:34:44;33.53;;;13.63;;
5841;SDS011;2947;52.276;9.946;2023-11-21T02:37:10;29.97;;;13.80;;
5841;SDS011;2947;52.276;9.946;2023-11-21T02:39:36;33.40;;;15.17;;
5841;SDS011;2947;52.276;9.946;2023-11-21T02:42:02;28.47;;;14.50;;
5841;SDS011;2947;52.276;9.946;2023-11-21T02:44:29;32.17;;;14.60;;
5841;SDS011;2947;52.276;9.946;2023-11-21T02:46:54;33.07;;;14.40;;
5841;SDS011;2947;52.276;9.946;2023-11-21T02:49:22;39.13;;;14.40;;
5841;SDS011;2947;52.276;9.946;2023-11-21T02:51:48;26.43;;;15.30;;
5841;SDS011;2947;52.276;9.946;2023-11-21T02:54:14;46.17;;;16.03;;
5841;SDS011;2947;52.276;9.946;2023-11-21T02:56:39;34.00;;;15.77;;
5841;SDS011;2947;52.276;9.946;2023-11-21T02:59:05;37.80;;;15.03;;
5841;SDS011;2947;52.276;9.946;2023-11-21T03:01:31;40.63;;;15.80;;
5841;SDS011;2947;52.276;9.946;2023-11-21T03:03:56;34.60;;;16.23;;
5841;SDS011;2947;52.276;9.946;2023-11-21T03:06:22;46.00;;;16.70;;
5841;SDS011;2947;52.276;9.946;2023-11-21T03:08:48;37.13;;;15.30;;
5841;SDS011;2947;52.276;9.946;2023-11-21T03:11:14;47.97;;;16.87;;
5841;SDS011;2947;52.276;9.946;2023-11-21T03:13:40;33.37;;;15.30;;
5841;SDS011;2947;52.276;9.946;2023-11-21T03:16:08;37.07;;;15.80;;
5841;SDS011;2947;52.276;9.946;2023-11-21T03:18:35;44.00;;;16.23;;
5841;SDS011;2947;52.276;9.946;2023-11-21T03:21:02;41.20;;;16.80;;
5841;SDS011;2947;52.276;9.946;2023-11-21T03:23:34;43.47;;;15.27;;
5841;SDS011;2947;52.276;9.946;2023-11-21T03:26:00;34.60;;;15.23;;
5841;SDS011;2947;52.276;9.946;2023-11-21T03:28:27;39.03;;;16.20;;
5841;SDS011;2947;52.276;9.946;2023-11-21T03:30:53;45.70;;;17.90;;
5841;SDS011;2947;52.276;9.946;2023-11-21T03:33:19;42.07;;;15.97;;
5841;SDS011;2947;52.276;9.946;2023-11-21T03:35:45;45.07;;;17.63;;
5841;SDS011;2947;52.276;9.946;2023-11-21T03:38:11;39.70;;;17.43;;
5841;SDS011;2947;52.276;9.946;2023-11-21T03:40:37;37.37;;;15.20;;
5841;SDS011;2947;52.276;9.946;2023-11-21T03:43:04;43.60;;;17.00;;
5841;SDS011;2947;52.276;9.946;2023-11-21T03:45:31;45.60;;;15.57;;
5841;SDS011;2947;52.276;9.946;2023-11-21T03:47:57;46.10;;;17.20;;
5841;SDS011;2947;52.276;9.946;2023-11-21T03:50:23;44.90;;;17.50;;
5841;SDS011;2947;52.276;9.946;2023-11-21T03:52:48;42.07;;;17.43;;
5841;SDS011;2947;52.276;9.946;2023-11-21T03:55:14;39.13;;;16.83;;
5841;SDS011;2947;52.276;9.946;2023-11-21T03:57:40;36.23;;;17.33;;
5841;SDS011;2947;52.276;9.946;2023-11-21T04:00:06;45.20;;;18.03;;
5841;SDS011;2947;52.276;9.946;2023-11-21T04:02:35;40.83;;;15.73;;
5841;SDS011;2947;52.276;9.946;2023-11-21T04:05:01;44.97;;;18.40;;
5841;SDS011;2947;52.276;9.946;2023-11-21T04:07:28;42.47;;;17.13;;
5841;SDS011;2947;52.276;9.946;2023-11-21T04:09:54;38.70;;;16.97;;
5841;SDS011;2947;52.276;9.946;2023-11-21T04:12:20;41.90;;;17.03;;
5841;SDS011;2947;52.276;9.946;2023-11-21T04:14:45;34.57;;;16.70;;
5841;SDS011;2947;52.276;9.946;2023-11-21T04:17:11;45.23;;;16.67;;
5841;SDS011;2947;52.276;9.946;2023-11-21T04:19:37;42.63;;;17.80;;
5841;SDS011;2947;52.276;9.946;2023-11-21T04:22:02;47.73;;;17.60;;
5841;SDS011;2947;52.276;9.946;2023-11-21T04:24:29;54.17;;;19.00;;
5841;SDS011;2947;52.276;9.946;2023-11-21T04:26:54;51.27;;;16.90;;
5841;SDS011;2947;52.276;9.946;2023-11-21T04:29:20;47.63;;;18.30;;
5841;SDS011;2947;52.276;9.946;2023-11-21T04:31:46;48.10;;;19.37;;
5841;SDS011;2947;52.276;9.946;2023-11-21T04:34:13;51.20;;;19.30;;
5841;SDS011;2947;52.276;9.946;2023-11-21T04:36:39;49.30;;;17.57;;
5841;SDS011;2947;52.276;9.946;2023-11-21T04:39:05;49.83;;;18.13;;
5841;SDS011;2947;52.276;9.946;2023-11-21T04:41:31;40.03;;;16.73;;
5841;SDS011;2947;52.276;9.946;2023-11-21T04:43:57;41.87;;;17.50;;
5841;SDS011;2947;52.276;9.946;2023-11-21T04:46:26;46.83;;;16.87;;
5841;SDS011;2947;52.276;9.946;2023-11-21T04:48:52;49.30;;;19.97;;
5841;SDS011;2947;52.276;9.946;2023-11-21T04:51:17;43.70;;;17.77;;
5841;SDS011;2947;52.276;9.946;2023-11-21T04:53:43;38.23;;;17.07;;
5841;SDS011;2947;52.276;9.946;2023-11-21T04:56:08;49.30;;;18.00;;
5841;SDS011;2947;52.276;9.946;2023-11-21T04:58:34;38.80;;;17.20;;
5841;SDS011;2947;52.276;9.946;2023-11-21T05:01:01;46.87;;;17.80;;
5841;SDS011;2947;52.276;9.946;2023-11-21T05:03:26;40.20;;;17.30;;
5841;SDS011;2947;52.276;9.946;2023-11-21T05:05:55;50.10;;;16.70;;
5841;SDS011;2947;52.276;9.946;2023-11-21T05:08:21;47.97;;;18.70;;
5841;SDS011;2947;52.276;9.946;2023-11-21T05:10:47;50.70;;;20.30;;
5841;SDS011;2947;52.276;9.946;2023-11-21T05:13:14;55.80;;;18.50;;
5841;SDS011;2947;52.276;9.946;2023-11-21T05:15:42;52.23;;;18.23;;
5841;SDS011;2947;52.276;9.946;2023-11-21T05:18:09;47.50;;;17.37;;
5841;SDS011;2947;52.276;9.946;2023-11-21T05:20:35;47.30;;;17.33;;
5841;SDS011;2947;52.276;9.946;2023-11-21T05:23:01;42.53;;;16.77;;
5841;SDS011;2947;52.276;9.946;2023-11-21T05:25:26;60.50;;;19.17;;
5841;SDS011;2947;52.276;9.946;2023-11-21T05:27:52;61.40;;;17.47;;
5841;SDS011;2947;52.276;9.946;2023-11-21T05:30:21;47.60;;;17.63;;
5841;SDS011;2947;52.276;9.946;2023-11-21T05:32:47;44.00;;;16.63;;
5841;SDS011;2947;52.276;9.946;2023-11-21T05:35:14;47.80;;;17.60;;
5841;SDS011;2947;52.276;9.946;2023-11-21T05:37:41;55.20;;;18.00;;
5841;SDS011;2947;52.276;9.946;2023-11-21T05:40:07;40.50;;;15.97;;
5841;SDS011;2947;52.276;9.946;2023-11-21T05:42:35;40.37;;;17.30;;
5841;SDS011;2947;52.276;9.946;2023-11-21T05:45:02;42.87;;;17.57;;
5841;SDS011;2947;52.276;9.946;2023-11-21T05:47:45;51.50;;;17.57;;
5841;SDS011;2947;52.276;9.946;2023-11-21T05:50:12;46.57;;;16.53;;
5841;SDS011;2947;52.276;9.946;2023-11-21T05:52:41;46.90;;;18.10;;
5841;SDS011;2947;52.276;9.946;2023-11-21T05:55:10;48.50;;;16.97;;
5841;SDS011;2947;52.276;9.946;2023-11-21T05:57:37;39.57;;;16.53;;
5841;SDS011;2947;52.276;9.946;2023-11-21T06:00:05;44.10;;;16.53;;
5841;SDS011;2947;52.276;9.946;2023-11-21T06:02:38;43.77;;;16.07;;
5841;SDS011;2947;52.276;9.946;2023-11-21T06:05:06;43.10;;;17.20;;
5841;SDS011;2947;52.276;9.946;2023-11-21T06:07:33;41.23;;;17.47;;
5841;SDS011;2947;52.276;9.946;2023-11-21T06:10:00;42.30;;;16.43;;
5841;SDS011;2947;52.276;9.946;2023-11-21T06:12:35;55.13;;;17.73;;
5841;SDS011;2947;52.276;9.946;2023-11-21T06:15:04;36.73;;;14.87;;
5841;SDS011;2947;52.276;9.946;2023-11-21T06:17:33;41.90;;;16.60;;
5841;SDS011;2947;52.276;9.946;2023-11-21T06:20:05;37.13;;;15.60;;
5841;SDS011;2947;52.276;9.946;2023-11-21T06:22:40;41.30;;;15.20;;
5841;SDS011;2947;52.276;9.946;2023-11-21T06:25:08;33.30;;;15.10;;
5841;SDS011;2947;52.276;9.946;2023-11-21T06:27:40;30.43;;;13.50;;
5841;SDS011;2947;52.276;9.946;2023-11-21T06:30:08;31.23;;;13.63;;
5841;SDS011;2947;52.276;9.946;2023-11-21T06:32:35;33.90;;;13.90;;
5841;SDS011;2947;52.276;9.946;2023-11-21T06:35:02;31.90;;;13.77;;
5841;SDS011;2947;52.276;9.946;2023-11-21T06:37:29;30.03;;;13.47;;
5841;SDS011;2947;52.276;9.946;2023-11-21T06:39:56;28.70;;;13.70;;
5841;SDS011;2947;52.276;9.946;2023-11-21T06:42:23;41.87;;;14.70;;
5841;SDS011;2947;52.276;9.946;2023-11-21T06:44:50;26.10;;;12.20;;
5841;SDS011;2947;52.276;9.946;2023-11-21T06:47:19;30.20;;;13.37;;
5841;SDS011;2947;52.276;9.946;2023-11-21T06:49:45;40.73;;;14.63;;
5841;SDS011;2947;52.276;9.946;2023-11-21T06:52:13;36.97;;;13.37;;
5841;SDS011;2947;52.276;9.946;2023-11-21T06:54:39;32.90;;;13.00;;
5841;SDS011;2947;52.276;9.946;2023-11-21T06:57:04;21.10;;;9.33;;
5841;SDS011;2947;52.276;9.946;2023-11-21T06:59:30;12.23;;;5.67;;
5841;SDS011;2947;52.276;9.946;2023-11-21T07:01:56;10.27;;;4.30;;
5841;SDS011;2947;52.276;9.946;2023-11-21T07:04:22;7.33;;;3.10;;
5841;SDS011;2947;52.276;9.946;2023-11-21T07:06:49;6.20;;;2.63;;
5841;SDS011;2947;52.276;9.946;2023-11-21T07:09:14;8.17;;;3.13;;
5841;SDS011;2947;52.276;9.946;2023-11-21T07:11:40;7.83;;;4.70;;
5841;SDS011;2947;52.276;9.946;2023-11-21T07:14:07;13.77;;;5.47;;
5841;SDS011;2947;52.276;9.946;2023-11-21T07:16:34;11.90;;;4.90;;
5841;SDS011;2947;52.276;9.946;2023-11-21T07:19:05;10.67;;;5.03;;
5841;SDS011;2947;52.276;9.946;2023-11-21T07:21:34;10.60;;;5.57;;
5841;SDS011;2947;52.276;9.946;2023-11-21T07:24:01;10.13;;;5.60;;
5841;SDS011;2947;52.276;9.946;2023-11-21T07:26:28;10.67;;;5.27;;
5841;SDS011;2947;52.276;9.946;2023-11-21T07:28:58;11.63;;;6.40;;
5841;SDS011;2947;52.276;9.946;2023-11-21T07:31:25;11.40;;;4.90;;
5841;SDS011;2947;52.276;9.946;2023-11-21T07:33:51;11.73;;;5.63;;
5841;SDS011;2947;52.276;9.946;2023-11-21T07:36:18;8.57;;;5.00;;
5841;SDS011;2947;52.276;9.946;2023-11-21T07:38:46;12.13;;;5.67;;
5841;SDS011;2947;52.276;9.946;2023-11-21T07:41:12;11.50;;;4.70;;
5841;SDS011;2947;52.276;9.946;2023-11-21T07:43:40;10.30;;;4.50;;
5841;SDS011;2947;52.276;9.946;2023-11-21T07:46:07;13.80;;;5.67;;
5841;SDS011;2947;52.276;9.946;2023-11-21T07:48:33;9.37;;;5.53;;
5841;SDS011;2947;52.276;9.946;2023-11-21T07:51:00;14.43;;;4.20;;
5841;SDS011;2947;52.276;9.946;2023-11-21T07:53:30;12.83;;;4.33;;
5841;SDS011;2947;52.276;9.946;2023-11-21T07:55:56;6.80;;;3.70;;
5841;SDS011;2947;52.276;9.946;2023-11-21T07:58:25;9.83;;;4.20;;
5841;SDS011;2947;52.276;9.946;2023-11-21T08:00:51;10.03;;;4.53;;
5841;SDS011;2947;52.276;9.946;2023-11-21T08:03:17;10.00;;;5.27;;
5841;SDS011;2947;52.276;9.946;2023-11-21T08:05:42;9.07;;;4.60;;
5841;SDS011;2947;52.276;9.946;2023-11-21T08:08:08;12.57;;;6.10;;
5841;SDS011;2947;52.276;9.946;2023-11-21T08:10:34;14.67;;;6.57;;
5841;SDS011;2947;52.276;9.946;2023-11-21T08:13:03;10.73;;;5.87;;
5841;SDS011;2947;52.276;9.946;2023-11-21T08:15:31;12.73;;;6.60;;
5841;SDS011;2947;52.276;9.946;2023-11-21T08:17:57;17.27;;;7.07;;
5841;SDS011;2947;52.276;9.946;2023-11-21T08:20:26;18.77;;;5.40;;
5841;SDS011;2947;52.276;9.946;2023-11-21T08:22:52;9.43;;;5.47;;
5841;SDS011;2947;52.276;9.946;2023-11-21T08:25:18;14.00;;;5.87;;
5841;SDS011;2947;52.276;9.946;2023-11-21T08:27:45;13.57;;;6.30;;
5841;SDS011;2947;52.276;9.946;2023-11-21T08:30:11;13.63;;;6.40;;
5841;SDS011;2947;52.276;9.946;2023-11-21T08:32:39;14.57;;;6.70;;
5841;SDS011;2947;52.276;9.946;2023-11-21T08:35:06;18.50;;;8.37;;
5841;SDS011;2947;52.276;9.946;2023-11-21T08:37:33;14.20;;;7.37;;
5841;SDS011;2947;52.276;9.946;2023-11-21T08:40:02;15.07;;;7.00;;
5841;SDS011;2947;52.276;9.946;2023-11-21T08:42:37;13.47;;;7.37;;
5841;SDS011;2947;52.276;9.946;2023-11-21T08:45:03;10.17;;;4.57;;
5841;SDS011;2947;52.276;9.946;2023-11-21T08:47:31;15.20;;;7.53;;
5841;SDS011;2947;52.276;9.946;2023-11-21T08:49:56;16.40;;;7.67;;
5841;SDS011;2947;52.276;9.946;2023-11-21T08:52:23;17.93;;;8.93;;
5841;SDS011;2947;52.276;9.946;2023-11-21T08:54:49;21.10;;;7.90;;
5841;SDS011;2947;52.276;9.946;2023-11-21T08:57:23;15.03;;;8.67;;
5841;SDS011;2947;52.276;9.946;2023-11-21T08:59:50;19.60;;;9.63;;
5841;SDS011;2947;52.276;9.946;2023-11-21T09:02:21;20.40;;;9.20;;
5841;SDS011;2947;52.276;9.946;2023-11-21T09:04:48;16.87;;;7.53;;
5841;SDS011;2947;52.276;9.946;2023-11-21T09:07:15;22.23;;;10.77;;
5841;SDS011;2947;52.276;9.946;2023-11-21T09:09:41;13.60;;;6.73;;
5841;SDS011;2947;52.276;9.946;2023-11-21T09:12:07;22.37;;;8.50;;
5841;SDS011;2947;52.276;9.946;2023-11-21T09:14:36;20.73;;;9.93;;
5841;SDS011;2947;52.276;9.946;2023-11-21T09:17:02;20.93;;;11.10;;
5841;SDS011;2947;52.276;9.946;2023-11-21T09:19:27;18.30;;;9.50;;
5841;SDS011;2947;52.276;9.946;2023-11-21T09:21:53;22.87;;;10.40;;
5841;SDS011;2947;52.276;9.946;2023-11-21T09:24:22;12.30;;;6.10;;
5841;SDS011;2947;52.276;9.946;2023-11-21T09:26:48;17.07;;;9.60;;
5841;SDS011;2947;52.276;9.946;2023-11-21T09:29:14;12.23;;;6.93;;
5841;SDS011;2947;52.276;9.946;2023-11-21T09:31:40;13.50;;;7.30;;
5841;SDS011;2947;52.276;9.946;2023-11-21T09:34:07;19.37;;;8.10;;
5841;SDS011;2947;52.276;9.946;2023-11-21T09:36:33;10.60;;;5.77;;
5841;SDS011;2947;52.276;9.946;2023-11-21T09:38:59;13.60;;;8.67;;
5841;SDS011;2947;52.276;9.946;2023-11-21T09:41:31;12.83;;;8.03;;
5841;SDS011;2947;52.276;9.946;2023-11-21T09:44:13;11.77;;;6.23;;
5841;SDS011;2947;52.276;9.946;2023-11-21T09:46:54;13.77;;;7.20;;
5841;SDS011;2947;52.276;9.946;2023-11-21T09:49:24;16.10;;;7.83;;
5841;SDS011;2947;52.276;9.946;2023-11-21T09:51:54;13.37;;;8.17;;
5841;SDS011;2947;52.276;9.946;2023-11-21T09:54:23;13.70;;;6.83;;
5841;SDS011;2947;52.276;9.946;2023-11-21T09:56:50;15.43;;;8.60;;
5841;SDS011;2947;52.276;9.946;2023-11-21T09:59:16;15.13;;;5.60;;
5841;SDS011;2947;52.276;9.946;2023-11-21T10:01:42;9.90;;;5.60;;
5841;SDS011;2947;52.276;9.946;2023-11-21T10:04:11;11.10;;;5.77;;
5841;SDS011;2947;52.276;9.946;2023-11-21T10:06:38;12.20;;;6.30;;
5841;SDS011;2947;52.276;9.946;2023-11-21T10:09:06;11.13;;;6.33;;
5841;SDS011;2947;52.276;9.946;2023-11-21T10:11:43;11.60;;;6.30;;
5841;SDS011;2947;52.276;9.946;2023-11-21T10:14:12;13.03;;;5.80;;
5841;SDS011;2947;52.276;9.946;2023-11-21T10:16:39;10.00;;;6.10;;
5841;SDS011;2947;52.276;9.946;2023-11-21T10:19:08;11.37;;;6.00;;
5841;SDS011;2947;52.276;9.946;2023-11-21T10:21:41;10.47;;;5.63;;
5841;SDS011;2947;52.276;9.946;2023-11-21T10:24:07;10.67;;;6.63;;
5841;SDS011;2947;52.276;9.946;2023-11-21T10:26:32;13.27;;;6.57;;
5841;SDS011;2947;52.276;9.946;2023-11-21T10:29:00;14.37;;;6.43;;
5841;SDS011;2947;52.276;9.946;2023-11-21T10:31:30;9.00;;;5.57;;
5841;SDS011;2947;52.276;9.946;2023-11-21T10:34:18;7.80;;;4.80;;
5841;SDS011;2947;52.276;9.946;2023-11-21T10:36:44;10.27;;;5.30;;
5841;SDS011;2947;52.276;9.946;2023-11-21T10:39:17;7.83;;;3.97;;
5841;SDS011;2947;52.276;9.946;2023-11-21T10:41:44;6.50;;;3.73;;
5841;SDS011;2947;52.276;9.946;2023-11-21T10:44:17;9.40;;;5.30;;
5841;SDS011;2947;52.276;9.946;2023-11-21T10:46:50;8.50;;;4.70;;
5841;SDS011;2947;52.276;9.946;2023-11-21T10:49:20;8.77;;;4.60;;
5841;SDS011;2947;52.276;9.946;2023-11-21T10:51:49;7.27;;;4.37;;
5841;SDS011;2947;52.276;9.946;2023-11-21T10:54:18;7.93;;;5.03;;
5841;SDS011;2947;52.276;9.946;2023-11-21T10:56:49;9.07;;;4.70;;
5841;SDS011;2947;52.276;9.946;2023-11-21T10:59:22;12.40;;;5.30;;
5841;SDS011;2947;52.276;9.946;2023-11-21T11:01:50;8.60;;;5.20;;
5841;SDS011;2947;52.276;9.946;2023-11-21T11:04:20;9.50;;;5.20;;
5841;SDS011;2947;52.276;9.946;2023-11-21T11:07:08;16.33;;;5.00;;
5841;SDS011;2947;52.276;9.946;2023-11-21T11:09:37;10.00;;;5.03;;
5841;SDS011;2947;52.276;9.946;2023-11-21T11:12:03;8.40;;;4.87;;
5841;SDS011;2947;52.276;9.946;2023-11-21T11:14:29;8.20;;;5.20;;
5841;SDS011;2947;52.276;9.946;2023-11-21T11:16:57;13.97;;;5.70;;
5841;SDS011;2947;52.276;9.946;2023-11-21T11:19:25;10.80;;;5.13;;
5841;SDS011;2947;52.276;9.946;2023-11-21T11:30:12;9.67;;;5.20;;
5841;SDS011;2947;52.276;9.946;2023-11-21T11:33:06;11.77;;;5.90;;
5841;SDS011;2947;52.276;9.946;2023-11-21T11:35:55;10.03;;;5.30;;
5841;SDS011;2947;52.276;9.946;2023-11-21T11:38:46;10.30;;;5.23;;
5841;SDS011;2947;52.276;9.946;2023-11-21T11:41:15;9.30;;;5.53;;
5841;SDS011;2947;52.276;9.946;2023-11-21T11:43:57;7.80;;;5.10;;
5841;SDS011;2947;52.276;9.946;2023-11-21T11:46:42;10.50;;;5.90;;
5841;SDS011;2947;52.276;9.946;2023-11-21T11:49:28;9.70;;;5.03;;
5841;SDS011;2947;52.276;9.946;2023-11-21T11:52:31;8.90;;;5.50;;
5841;SDS011;2947;52.276;9.946;2023-11-21T11:55:12;8.53;;;5.23;;
5841;SDS011;2947;52.276;9.946;2023-11-21T11:57:43;7.27;;;4.13;;
5841;SDS011;2947;52.276;9.946;2023-11-21T12:00:13;10.10;;;5.80;;
5841;SDS011;2947;52.276;9.946;2023-11-21T12:02:54;9.10;;;5.10;;
5841;SDS011;2947;52.276;9.946;2023-11-21T12:05:28;11.93;;;6.80;;
5841;SDS011;2947;52.276;9.946;2023-11-21T12:07:59;15.13;;;7.00;;
5841;SDS011;2947;52.276;9.946;2023-11-21T12:10:30;10.57;;;6.37;;
5841;SDS011;2947;52.276;9.946;2023-11-21T12:12:58;11.37;;;5.57;;
5841;SDS011;2947;52.276;9.946;2023-11-21T12:15:32;7.87;;;4.33;;
5841;SDS011;2947;52.276;9.946;2023-11-21T12:17:59;6.73;;;4.50;;
5841;SDS011;2947;52.276;9.946;2023-11-21T12:20:25;8.70;;;5.60;;
5841;SDS011;2947;52.276;9.946;2023-11-21T12:25:28;8.83;;;4.70;;
5841;SDS011;2947;52.276;9.946;2023-11-21T12:27:57;9.53;;;5.33;;
5841;SDS011;2947;52.276;9.946;2023-11-21T12:30:28;8.53;;;4.47;;
5841;SDS011;2947;52.276;9.946;2023-11-21T12:33:03;10.37;;;6.20;;
5841;SDS011;2947;52.276;9.946;2023-11-21T12:35:32;8.27;;;5.17;;
5841;SDS011;2947;52.276;9.946;2023-11-21T12:37:59;8.33;;;4.40;;
5841;SDS011;2947;52.276;9.946;2023-11-21T12:40:30;10.47;;;5.67;;
5841;SDS011;2947;52.276;9.946;2023-11-21T12:42:56;9.87;;;5.50;;
5841;SDS011;2947;52.276;9.946;2023-11-21T12:45:25;8.60;;;4.90;;
5841;SDS011;2947;52.276;9.946;2023-11-21T12:48:04;7.80;;;4.70;;
5841;SDS011;2947;52.276;9.946;2023-11-21T12:50:36;8.60;;;4.83;;
5841;SDS011;2947;52.276;9.946;2023-11-21T12:53:04;9.83;;;5.70;;
5841;SDS011;2947;52.276;9.946;2023-11-21T12:55:37;10.53;;;5.33;;
5841;SDS011;2947;52.276;9.946;2023-11-21T12:58:04;10.30;;;4.93;;
5841;SDS011;2947;52.276;9.946;2023-11-21T13:00:37;10.07;;;4.87;;
5841;SDS011;2947;52.276;9.946;2023-11-21T13:03:07;9.27;;;4.90;;
5841;SDS011;2947;52.276;9.946;2023-11-21T13:05:37;6.33;;;4.30;;
5841;SDS011;2947;52.276;9.946;2023-11-21T13:08:05;6.30;;;4.30;;
5841;SDS011;2947;52.276;9.946;2023-11-21T13:10:34;7.20;;;4.17;;
5841;SDS011;2947;52.276;9.946;2023-11-21T13:13:05;6.40;;;3.97;;
5841;SDS011;2947;52.276;9.946;2023-11-21T13:15:38;6.53;;;3.90;;
5841;SDS011;2947;52.276;9.946;2023-11-21T13:18:08;6.63;;;4.50;;
5841;SDS011;2947;52.276;9.946;2023-11-21T13:20:36;7.13;;;4.53;;
5841;SDS011;2947;52.276;9.946;2023-11-21T13:23:07;6.60;;;3.67;;
5841;SDS011;2947;52.276;9.946;2023-11-21T13:25:33;8.43;;;4.53;;
5841;SDS011;2947;52.276;9.946;2023-11-21T13:27:59;6.10;;;3.90;;
5841;SDS011;2947;52.276;9.946;2023-11-21T13:30:26;5.50;;;3.27;;
5841;SDS011;2947;52.276;9.946;2023-11-21T13:33:00;6.53;;;3.83;;
5841;SDS011;2947;52.276;9.946;2023-11-21T13:35:27;7.67;;;3.93;;
5841;SDS011;2947;52.276;9.946;2023-11-21T13:38:07;6.90;;;4.43;;
5841;SDS011;2947;52.276;9.946;2023-11-21T13:40:39;6.60;;;3.90;;
5841;SDS011;2947;52.276;9.946;2023-11-21T13:43:12;5.97;;;3.97;;
5841;SDS011;2947;52.276;9.946;2023-11-21T13:45:39;6.30;;;3.80;;
5841;SDS011;2947;52.276;9.946;2023-11-21T13:48:05;8.33;;;4.87;;
5841;SDS011;2947;52.276;9.946;2023-11-21T13:50:38;11.03;;;4.80;;
5841;SDS011;2947;52.276;9.946;2023-11-21T13:53:13;6.13;;;3.40;;
5841;SDS011;2947;52.276;9.946;2023-11-21T13:55:51;7.50;;;3.87;;
5841;SDS011;2947;52.276;9.946;2023-11-21T13:58:22;7.60;;;3.90;;
5841;SDS011;2947;52.276;9.946;2023-11-21T14:01:07;6.80;;;3.40;;
5841;SDS011;2947;52.276;9.946;2023-11-21T14:03:51;6.07;;;3.83;;
5841;SDS011;2947;52.276;9.946;2023-11-21T14:06:22;9.40;;;3.73;;
5841;SDS011;2947;52.276;9.946;2023-11-21T14:08:57;7.07;;;3.20;;
5841;SDS011;2947;52.276;9.946;2023-11-21T14:11:22;7.50;;;4.30;;
5841;SDS011;2947;52.276;9.946;2023-11-21T14:13:48;7.70;;;3.90;;
5841;SDS011;2947;52.276;9.946;2023-11-21T14:16:17;6.27;;;3.47;;
5841;SDS011;2947;52.276;9.946;2023-11-21T14:18:43;7.50;;;3.27;;
5841;SDS011;2947;52.276;9.946;2023-11-21T14:21:20;7.07;;;3.63;;
5841;SDS011;2947;52.276;9.946;2023-11-21T14:23:46;5.40;;;2.77;;
5841;SDS011;2947;52.276;9.946;2023-11-21T14:26:13;7.63;;;3.00;;
5841;SDS011;2947;52.276;9.946;2023-11-21T14:28:40;6.67;;;3.97;;
5841;SDS011;2947;52.276;9.946;2023-11-21T14:31:07;5.33;;;3.13;;
5841;SDS011;2947;52.276;9.946;2023-11-21T14:33:38;8.20;;;2.90;;
5841;SDS011;2947;52.276;9.946;2023-11-21T14:36:04;4.77;;;2.67;;
5841;SDS011;2947;52.276;9.946;2023-11-21T14:38:33;6.10;;;2.73;;
5841;SDS011;2947;52.276;9.946;2023-11-21T14:40:59;6.13;;;3.27;;
5841;SDS011;2947;52.276;9.946;2023-11-21T14:43:25;5.50;;;3.43;;
5841;SDS011;2947;52.276;9.946;2023-11-21T14:45:54;6.80;;;2.80;;
5841;SDS011;2947;52.276;9.946;2023-11-21T14:48:24;5.30;;;2.93;;
5841;SDS011;2947;52.276;9.946;2023-11-21T14:51:08;4.60;;;3.20;;
5841;SDS011;2947;52.276;9.946;2023-11-21T14:53:37;5.27;;;3.30;;
5841;SDS011;2947;52.276;9.946;2023-11-21T14:56:07;7.20;;;3.53;;
5841;SDS011;2947;52.276;9.946;2023-11-21T14:58:35;7.43;;;4.00;;
5841;SDS011;2947;52.276;9.946;2023-11-21T15:01:03;6.17;;;3.47;;
5841;SDS011;2947;52.276;9.946;2023-11-21T15:03:29;19.17;;;5.73;;
5841;SDS011;2947;52.276;9.946;2023-11-21T15:05:58;5.73;;;3.40;;
5841;SDS011;2947;52.276;9.946;2023-11-21T15:08:43;6.63;;;3.90;;
5841;SDS011;2947;52.276;9.946;2023-11-21T15:11:18;8.13;;;3.67;;
5841;SDS011;2947;52.276;9.946;2023-11-21T15:13:44;9.60;;;4.20;;
5841;SDS011;2947;52.276;9.946;2023-11-21T15:16:13;9.73;;;4.37;;